sensor_id;sensor_type;location;lat;lon;timestamp;temperature;humidity
10678;DHT22;5387;48.722;9.110;2023-01-16T00:01:06;2.20;99.90
10678;DHT22;5387;48.722;9.110;2023-01-16T00:03:33;2.30;99.90
10678;DHT22;5387;48.722;9.110;2023-01-16T00:06:00;2.30;99.90
10678;DHT22;5387;48.722;9.110;2023-01-16T00:08:27;2.30;99.90
10678;DHT22;5387;48.722;9.110;2023-01-16T00:10:55;2.20;99.90
10678;DHT22;5387;48.722;9.110;2023-01-16T00:13:22;2.40;99.90
10678;DHT22;5387;48.722;9.110;2023-01-16T00:15:50;2.30;99.90
10678;DHT22;5387;48.722;9.110;2023-01-16T00:18:17;2.30;99.90
10678;DHT22;5387;48.722;9.110;2023-01-16T00:20:46;2.40;99.90
10678;DHT22;5387;48.722;9.110;2023-01-16T00:23:13;2.40;99.90
10678;DHT22;5387;48.722;9.110;2023-01-16T00:25:41;2.40;99.90
10678;DHT22;5387;48.722;9.110;2023-01-16T00:28:09;2.30;99.90
10678;DHT22;5387;48.722;9.110;2023-01-16T00:30:37;2.20;99.90
10678;DHT22;5387;48.722;9.110;2023-01-16T00:33:04;2.20;99.90
10678;DHT22;5387;48.722;9.110;2023-01-16T00:35:31;2.20;99.90
10678;DHT22;5387;48.722;9.110;2023-01-16T00:37:58;2.10;99.90
10678;DHT22;5387;48.722;9.110;2023-01-16T00:40:26;2.20;99.90
10678;DHT22;5387;48.722;9.110;2023-01-16T00:42:53;2.20;99.90
10678;DHT22;5387;48.722;9.110;2023-01-16T00:45:21;2.40;99.90
10678;DHT22;5387;48.722;9.110;2023-01-16T00:47:48;2.20;99.90
10678;DHT22;5387;48.722;9.110;2023-01-16T00:50:15;2.20;99.90
10678;DHT22;5387;48.722;9.110;2023-01-16T00:52:41;2.20;99.90
10678;DHT22;5387;48.722;9.110;2023-01-16T00:55:08;2.20;99.90
10678;DHT22;5387;48.722;9.110;2023-01-16T00:57:35;2.20;99.90
10678;DHT22;5387;48.722;9.110;2023-01-16T01:00:03;2.10;99.90
10678;DHT22;5387;48.722;9.110;2023-01-16T01:02:31;2.20;99.90
10678;DHT22;5387;48.722;9.110;2023-01-16T01:04:58;2.10;99.90
10678;DHT22;5387;48.722;9.110;2023-01-16T01:07:25;2.10;99.90
10678;DHT22;5387;48.722;9.110;2023-01-16T01:09:52;2.00;99.90
10678;DHT22;5387;48.722;9.110;2023-01-16T01:12:19;1.90;99.90
10678;DHT22;5387;48.722;9.110;2023-01-16T01:14:46;2.00;99.90
10678;DHT22;5387;48.722;9.110;2023-01-16T01:17:12;1.90;99.90
10678;DHT22;5387;48.722;9.110;2023-01-16T01:19:40;1.90;99.90
10678;DHT22;5387;48.722;9.110;2023-01-16T01:22:07;1.90;99.90
10678;DHT22;5387;48.722;9.110;2023-01-16T01:24:34;1.90;99.90
10678;DHT22;5387;48.722;9.110;2023-01-16T01:27:01;1.90;99.90
10678;DHT22;5387;48.722;9.110;2023-01-16T01:29:28;1.90;99.90
10678;DHT22;5387;48.722;9.110;2023-01-16T01:31:55;1.80;99.90
10678;DHT22;5387;48.722;9.110;2023-01-16T01:34:21;1.80;99.90
10678;DHT22;5387;48.722;9.110;2023-01-16T01:36:50;1.90;99.90
10678;DHT22;5387;48.722;9.110;2023-01-16T01:39:16;1.90;99.90
10678;DHT22;5387;48.722;9.110;2023-01-16T01:41:43;1.80;99.90
10678;DHT22;5387;48.722;9.110;2023-01-16T01:47:14;1.90;99.90
10678;DHT22;5387;48.722;9.110;2023-01-16T01:49:42;1.80;99.90
10678;DHT22;5387;48.722;9.110;2023-01-16T01:52:11;1.80;99.90
10678;DHT22;5387;48.722;9.110;2023-01-16T01:54:40;1.80;99.90
10678;DHT22;5387;48.722;9.110;2023-01-16T01:57:11;1.80;99.90
10678;DHT22;5387;48.722;9.110;2023-01-16T01:59:41;1.80;99.90
10678;DHT22;5387;48.722;9.110;2023-01-16T02:02:13;1.80;99.90
10678;DHT22;5387;48.722;9.110;2023-01-16T02:04:43;1.80;99.90
10678;DHT22;5387;48.722;9.110;2023-01-16T02:07:15;1.80;99.90
10678;DHT22;5387;48.722;9.110;2023-01-16T02:09:42;1.80;99.90
10678;DHT22;5387;48.722;9.110;2023-01-16T02:12:11;1.80;99.90
10678;DHT22;5387;48.722;9.110;2023-01-16T02:14:40;1.70;99.90
10678;DHT22;5387;48.722;9.110;2023-01-16T02:17:10;1.80;99.90
10678;DHT22;5387;48.722;9.110;2023-01-16T02:20:15;1.70;99.90
10678;DHT22;5387;48.722;9.110;2023-01-16T02:23:17;1.70;99.90
10678;DHT22;5387;48.722;9.110;2023-01-16T02:29:24;1.50;99.90
10678;DHT22;5387;48.722;9.110;2023-01-16T02:32:07;1.50;99.90
10678;DHT22;5387;48.722;9.110;2023-01-16T02:34:59;1.40;99.90
10678;DHT22;5387;48.722;9.110;2023-01-16T02:37:35;1.50;99.90
10678;DHT22;5387;48.722;9.110;2023-01-16T02:40:22;1.40;99.90
10678;DHT22;5387;48.722;9.110;2023-01-16T02:42:57;1.50;99.90
10678;DHT22;5387;48.722;9.110;2023-01-16T02:45:30;1.50;99.90
10678;DHT22;5387;48.722;9.110;2023-01-16T02:48:06;1.50;99.90
10678;DHT22;5387;48.722;9.110;2023-01-16T02:50:40;1.40;99.90
10678;DHT22;5387;48.722;9.110;2023-01-16T02:53:16;1.40;99.90
10678;DHT22;5387;48.722;9.110;2023-01-16T02:55:47;1.50;99.90
10678;DHT22;5387;48.722;9.110;2023-01-16T02:58:17;1.50;99.90
10678;DHT22;5387;48.722;9.110;2023-01-16T03:00:51;1.50;99.90
10678;DHT22;5387;48.722;9.110;2023-01-16T03:03:40;1.50;99.90
10678;DHT22;5387;48.722;9.110;2023-01-16T03:06:21;1.50;99.90
10678;DHT22;5387;48.722;9.110;2023-01-16T03:08:56;1.60;99.90
10678;DHT22;5387;48.722;9.110;2023-01-16T03:11:28;1.60;99.90
10678;DHT22;5387;48.722;9.110;2023-01-16T03:14:10;1.60;99.90
10678;DHT22;5387;48.722;9.110;2023-01-16T03:16:49;1.70;99.90
10678;DHT22;5387;48.722;9.110;2023-01-16T03:19:27;1.80;99.90
10678;DHT22;5387;48.722;9.110;2023-01-16T03:22:05;1.90;99.90
10678;DHT22;5387;48.722;9.110;2023-01-16T03:24:40;1.80;99.90
10678;DHT22;5387;48.722;9.110;2023-01-16T03:27:14;1.70;99.90
10678;DHT22;5387;48.722;9.110;2023-01-16T03:29:49;1.80;99.90
10678;DHT22;5387;48.722;9.110;2023-01-16T03:32:23;1.70;99.90
10678;DHT22;5387;48.722;9.110;2023-01-16T03:34:57;1.70;99.90
10678;DHT22;5387;48.722;9.110;2023-01-16T03:37:30;1.60;99.90
10678;DHT22;5387;48.722;9.110;2023-01-16T03:40:00;1.40;99.90
10678;DHT22;5387;48.722;9.110;2023-01-16T03:42:33;1.60;99.90
10678;DHT22;5387;48.722;9.110;2023-01-16T03:45:03;1.40;99.90
10678;DHT22;5387;48.722;9.110;2023-01-16T03:47:36;1.30;99.90
10678;DHT22;5387;48.722;9.110;2023-01-16T03:50:09;1.40;99.90
10678;DHT22;5387;48.722;9.110;2023-01-16T03:52:41;1.40;99.90
10678;DHT22;5387;48.722;9.110;2023-01-16T03:55:15;1.40;99.90
10678;DHT22;5387;48.722;9.110;2023-01-16T03:57:46;1.40;99.90
10678;DHT22;5387;48.722;9.110;2023-01-16T04:00:17;1.40;99.90
10678;DHT22;5387;48.722;9.110;2023-01-16T04:02:48;1.40;99.90
10678;DHT22;5387;48.722;9.110;2023-01-16T04:05:23;1.40;99.90
10678;DHT22;5387;48.722;9.110;2023-01-16T04:07:56;1.50;99.90
10678;DHT22;5387;48.722;9.110;2023-01-16T04:10:26;1.50;99.90
10678;DHT22;5387;48.722;9.110;2023-01-16T04:12:59;1.50;99.90
10678;DHT22;5387;48.722;9.110;2023-01-16T04:15:29;1.50;99.90
10678;DHT22;5387;48.722;9.110;2023-01-16T04:17:57;1.50;99.90
10678;DHT22;5387;48.722;9.110;2023-01-16T04:20:27;1.50;99.90
10678;DHT22;5387;48.722;9.110;2023-01-16T04:22:55;1.50;99.90
10678;DHT22;5387;48.722;9.110;2023-01-16T04:25:22;1.60;99.90
10678;DHT22;5387;48.722;9.110;2023-01-16T04:27:49;1.60;99.90
10678;DHT22;5387;48.722;9.110;2023-01-16T04:30:16;1.60;99.90
10678;DHT22;5387;48.722;9.110;2023-01-16T04:32:43;1.60;99.90
10678;DHT22;5387;48.722;9.110;2023-01-16T04:35:11;1.60;99.90
10678;DHT22;5387;48.722;9.110;2023-01-16T04:37:39;1.50;99.90
10678;DHT22;5387;48.722;9.110;2023-01-16T04:40:07;1.60;99.90
10678;DHT22;5387;48.722;9.110;2023-01-16T04:42:35;1.50;99.90
10678;DHT22;5387;48.722;9.110;2023-01-16T04:45:01;1.50;99.90
10678;DHT22;5387;48.722;9.110;2023-01-16T04:47:28;1.50;99.90
10678;DHT22;5387;48.722;9.110;2023-01-16T04:49:55;1.50;99.90
10678;DHT22;5387;48.722;9.110;2023-01-16T04:52:22;1.50;99.90
10678;DHT22;5387;48.722;9.110;2023-01-16T04:54:50;1.50;99.90
10678;DHT22;5387;48.722;9.110;2023-01-16T04:57:17;1.50;99.90
10678;DHT22;5387;48.722;9.110;2023-01-16T04:59:44;1.30;99.90
10678;DHT22;5387;48.722;9.110;2023-01-16T05:02:10;1.30;99.90
10678;DHT22;5387;48.722;9.110;2023-01-16T05:04:37;1.40;99.90
10678;DHT22;5387;48.722;9.110;2023-01-16T05:07:04;1.40;99.90
10678;DHT22;5387;48.722;9.110;2023-01-16T05:09:31;1.40;99.90
10678;DHT22;5387;48.722;9.110;2023-01-16T05:11:59;1.40;99.90
10678;DHT22;5387;48.722;9.110;2023-01-16T05:14:26;1.50;99.90
10678;DHT22;5387;48.722;9.110;2023-01-16T05:16:53;1.50;99.90
10678;DHT22;5387;48.722;9.110;2023-01-16T05:19:20;1.50;99.90
10678;DHT22;5387;48.722;9.110;2023-01-16T05:21:46;1.50;99.90
10678;DHT22;5387;48.722;9.110;2023-01-16T05:24:13;1.60;99.90
10678;DHT22;5387;48.722;9.110;2023-01-16T05:26:40;1.60;99.90
10678;DHT22;5387;48.722;9.110;2023-01-16T05:29:08;1.60;99.90
10678;DHT22;5387;48.722;9.110;2023-01-16T05:31:35;1.60;99.90
10678;DHT22;5387;48.722;9.110;2023-01-16T05:34:02;1.60;99.90
10678;DHT22;5387;48.722;9.110;2023-01-16T05:36:29;1.70;99.90
10678;DHT22;5387;48.722;9.110;2023-01-16T05:38:55;1.80;99.90
10678;DHT22;5387;48.722;9.110;2023-01-16T05:41:22;1.80;99.90
10678;DHT22;5387;48.722;9.110;2023-01-16T05:43:49;1.70;99.90
10678;DHT22;5387;48.722;9.110;2023-01-16T05:46:17;1.90;99.90
10678;DHT22;5387;48.722;9.110;2023-01-16T05:48:44;1.80;99.90
10678;DHT22;5387;48.722;9.110;2023-01-16T05:51:11;1.80;99.90
10678;DHT22;5387;48.722;9.110;2023-01-16T05:53:38;1.90;99.90
10678;DHT22;5387;48.722;9.110;2023-01-16T05:56:09;1.80;99.90
10678;DHT22;5387;48.722;9.110;2023-01-16T05:58:37;2.00;99.90
10678;DHT22;5387;48.722;9.110;2023-01-16T06:01:04;2.10;99.90
10678;DHT22;5387;48.722;9.110;2023-01-16T06:03:32;2.10;99.90
10678;DHT22;5387;48.722;9.110;2023-01-16T06:05:59;2.10;99.90
10678;DHT22;5387;48.722;9.110;2023-01-16T06:08:26;2.10;99.90
10678;DHT22;5387;48.722;9.110;2023-01-16T06:10:53;2.10;99.90
10678;DHT22;5387;48.722;9.110;2023-01-16T06:13:19;2.10;99.90
10678;DHT22;5387;48.722;9.110;2023-01-16T06:15:46;2.10;99.90
10678;DHT22;5387;48.722;9.110;2023-01-16T06:18:13;2.10;99.90
10678;DHT22;5387;48.722;9.110;2023-01-16T06:20:42;2.10;99.90
10678;DHT22;5387;48.722;9.110;2023-01-16T06:23:08;2.10;99.90
10678;DHT22;5387;48.722;9.110;2023-01-16T06:25:35;2.10;99.90
10678;DHT22;5387;48.722;9.110;2023-01-16T06:28:02;2.00;99.90
10678;DHT22;5387;48.722;9.110;2023-01-16T06:30:29;2.20;99.90
10678;DHT22;5387;48.722;9.110;2023-01-16T06:32:56;2.20;99.90
10678;DHT22;5387;48.722;9.110;2023-01-16T06:35:23;2.20;99.90
10678;DHT22;5387;48.722;9.110;2023-01-16T06:37:51;2.20;99.90
10678;DHT22;5387;48.722;9.110;2023-01-16T06:40:18;2.30;99.90
10678;DHT22;5387;48.722;9.110;2023-01-16T06:42:45;2.30;99.90
10678;DHT22;5387;48.722;9.110;2023-01-16T06:45:12;2.30;99.90
10678;DHT22;5387;48.722;9.110;2023-01-16T06:47:39;2.30;99.90
10678;DHT22;5387;48.722;9.110;2023-01-16T06:50:06;2.30;99.90
10678;DHT22;5387;48.722;9.110;2023-01-16T06:52:33;2.30;99.90
10678;DHT22;5387;48.722;9.110;2023-01-16T06:55:02;2.20;99.90
10678;DHT22;5387;48.722;9.110;2023-01-16T06:57:29;2.30;99.90
10678;DHT22;5387;48.722;9.110;2023-01-16T06:59:56;2.20;99.90
10678;DHT22;5387;48.722;9.110;2023-01-16T07:02:23;2.20;99.90
10678;DHT22;5387;48.722;9.110;2023-01-16T07:04:50;2.20;99.90
10678;DHT22;5387;48.722;9.110;2023-01-16T07:07:16;2.20;99.90
10678;DHT22;5387;48.722;9.110;2023-01-16T07:09:43;2.20;99.90
10678;DHT22;5387;48.722;9.110;2023-01-16T07:12:11;2.10;99.90
10678;DHT22;5387;48.722;9.110;2023-01-16T07:14:38;2.10;99.90
10678;DHT22;5387;48.722;9.110;2023-01-16T07:17:23;2.00;99.90
10678;DHT22;5387;48.722;9.110;2023-01-16T07:20:09;1.90;99.90
10678;DHT22;5387;48.722;9.110;2023-01-16T07:22:55;1.90;99.90
10678;DHT22;5387;48.722;9.110;2023-01-16T07:25:26;1.80;99.90
10678;DHT22;5387;48.722;9.110;2023-01-16T07:27:57;1.80;99.90
10678;DHT22;5387;48.722;9.110;2023-01-16T07:30:24;2.00;99.90
10678;DHT22;5387;48.722;9.110;2023-01-16T07:32:51;1.80;99.90
10678;DHT22;5387;48.722;9.110;2023-01-16T07:35:18;1.80;99.90
10678;DHT22;5387;48.722;9.110;2023-01-16T07:37:45;1.90;99.90
10678;DHT22;5387;48.722;9.110;2023-01-16T07:40:13;1.90;99.90
10678;DHT22;5387;48.722;9.110;2023-01-16T07:42:39;1.90;99.90
10678;DHT22;5387;48.722;9.110;2023-01-16T07:45:09;1.80;99.90
10678;DHT22;5387;48.722;9.110;2023-01-16T07:47:36;1.90;99.90
10678;DHT22;5387;48.722;9.110;2023-01-16T07:50:03;1.90;99.90
10678;DHT22;5387;48.722;9.110;2023-01-16T07:52:30;1.90;99.90
10678;DHT22;5387;48.722;9.110;2023-01-16T07:54:57;2.00;99.90
10678;DHT22;5387;48.722;9.110;2023-01-16T07:57:23;2.00;99.90
10678;DHT22;5387;48.722;9.110;2023-01-16T07:59:51;2.10;99.90
10678;DHT22;5387;48.722;9.110;2023-01-16T08:02:20;2.10;99.90
10678;DHT22;5387;48.722;9.110;2023-01-16T08:04:47;2.20;99.90
10678;DHT22;5387;48.722;9.110;2023-01-16T08:07:13;2.20;99.90
10678;DHT22;5387;48.722;9.110;2023-01-16T08:09:40;2.30;99.90
10678;DHT22;5387;48.722;9.110;2023-01-16T08:12:07;2.30;99.90
10678;DHT22;5387;48.722;9.110;2023-01-16T08:14:34;2.40;99.90
10678;DHT22;5387;48.722;9.110;2023-01-16T08:17:01;2.40;99.90
10678;DHT22;5387;48.722;9.110;2023-01-16T08:19:29;2.60;99.90
10678;DHT22;5387;48.722;9.110;2023-01-16T08:21:56;2.60;99.90
10678;DHT22;5387;48.722;9.110;2023-01-16T08:24:23;2.60;99.90
10678;DHT22;5387;48.722;9.110;2023-01-16T08:26:50;2.60;99.90
10678;DHT22;5387;48.722;9.110;2023-01-16T08:29:17;3.10;99.90
10678;DHT22;5387;48.722;9.110;2023-01-16T08:31:44;3.20;99.90
10678;DHT22;5387;48.722;9.110;2023-01-16T08:34:11;3.20;99.90
10678;DHT22;5387;48.722;9.110;2023-01-16T08:36:39;3.10;99.90
10678;DHT22;5387;48.722;9.110;2023-01-16T08:39:07;3.10;99.90
10678;DHT22;5387;48.722;9.110;2023-01-16T08:41:35;3.00;99.90
10678;DHT22;5387;48.722;9.110;2023-01-16T08:44:19;3.00;99.90
10678;DHT22;5387;48.722;9.110;2023-01-16T08:47:09;3.00;99.90
10678;DHT22;5387;48.722;9.110;2023-01-16T08:49:54;3.00;99.90
10678;DHT22;5387;48.722;9.110;2023-01-16T08:52:48;2.90;99.90
10678;DHT22;5387;48.722;9.110;2023-01-16T08:55:15;2.90;99.90
10678;DHT22;5387;48.722;9.110;2023-01-16T08:57:42;3.00;99.90
10678;DHT22;5387;48.722;9.110;2023-01-16T09:00:10;2.90;99.90
10678;DHT22;5387;48.722;9.110;2023-01-16T09:02:37;3.00;99.90
10678;DHT22;5387;48.722;9.110;2023-01-16T09:05:05;3.10;99.90
10678;DHT22;5387;48.722;9.110;2023-01-16T09:07:32;3.10;99.90
10678;DHT22;5387;48.722;9.110;2023-01-16T09:10:00;3.10;99.90
10678;DHT22;5387;48.722;9.110;2023-01-16T09:12:27;3.10;99.90
10678;DHT22;5387;48.722;9.110;2023-01-16T09:15:11;3.20;99.90
10678;DHT22;5387;48.722;9.110;2023-01-16T09:17:38;3.20;99.90
10678;DHT22;5387;48.722;9.110;2023-01-16T09:20:05;3.20;99.90
10678;DHT22;5387;48.722;9.110;2023-01-16T09:22:32;3.20;99.90
10678;DHT22;5387;48.722;9.110;2023-01-16T09:25:01;3.20;99.90
10678;DHT22;5387;48.722;9.110;2023-01-16T09:27:27;3.30;99.90
10678;DHT22;5387;48.722;9.110;2023-01-16T09:29:54;3.30;99.90
10678;DHT22;5387;48.722;9.110;2023-01-16T09:32:21;3.30;99.90
10678;DHT22;5387;48.722;9.110;2023-01-16T09:34:48;3.40;99.90
10678;DHT22;5387;48.722;9.110;2023-01-16T09:37:15;3.50;99.90
10678;DHT22;5387;48.722;9.110;2023-01-16T09:39:41;3.60;99.90
10678;DHT22;5387;48.722;9.110;2023-01-16T09:42:24;3.70;99.90
10678;DHT22;5387;48.722;9.110;2023-01-16T09:45:13;3.80;99.90
10678;DHT22;5387;48.722;9.110;2023-01-16T09:47:44;3.80;99.90
10678;DHT22;5387;48.722;9.110;2023-01-16T09:50:16;3.80;99.90
10678;DHT22;5387;48.722;9.110;2023-01-16T09:52:48;3.80;99.90
10678;DHT22;5387;48.722;9.110;2023-01-16T09:55:37;3.60;99.90
10678;DHT22;5387;48.722;9.110;2023-01-16T09:58:24;3.80;99.90
10678;DHT22;5387;48.722;9.110;2023-01-16T10:01:05;3.80;99.90
10678;DHT22;5387;48.722;9.110;2023-01-16T10:03:33;3.80;99.90
10678;DHT22;5387;48.722;9.110;2023-01-16T10:06:10;3.90;99.90
10678;DHT22;5387;48.722;9.110;2023-01-16T10:08:45;3.70;99.90
10678;DHT22;5387;48.722;9.110;2023-01-16T10:11:20;3.70;99.90
10678;DHT22;5387;48.722;9.110;2023-01-16T10:14:10;3.80;99.90
10678;DHT22;5387;48.722;9.110;2023-01-16T10:16:48;3.80;99.90
10678;DHT22;5387;48.722;9.110;2023-01-16T10:19:27;3.80;99.90
10678;DHT22;5387;48.722;9.110;2023-01-16T10:22:10;3.80;99.90
10678;DHT22;5387;48.722;9.110;2023-01-16T10:24:50;3.70;99.90
10678;DHT22;5387;48.722;9.110;2023-01-16T10:27:28;3.80;99.90
10678;DHT22;5387;48.722;9.110;2023-01-16T10:30:03;3.80;99.90
10678;DHT22;5387;48.722;9.110;2023-01-16T10:32:33;3.80;99.90
10678;DHT22;5387;48.722;9.110;2023-01-16T10:35:06;3.80;99.90
10678;DHT22;5387;48.722;9.110;2023-01-16T10:37:38;4.00;99.90
10678;DHT22;5387;48.722;9.110;2023-01-16T10:40:13;4.00;99.90
10678;DHT22;5387;48.722;9.110;2023-01-16T10:42:41;4.00;99.90
10678;DHT22;5387;48.722;9.110;2023-01-16T10:45:30;4.20;99.90
10678;DHT22;5387;48.722;9.110;2023-01-16T10:48:17;4.20;99.90
10678;DHT22;5387;48.722;9.110;2023-01-16T10:51:02;4.30;99.90
10678;DHT22;5387;48.722;9.110;2023-01-16T10:53:30;4.40;99.90
10678;DHT22;5387;48.722;9.110;2023-01-16T10:55:58;4.40;99.90
10678;DHT22;5387;48.722;9.110;2023-01-16T10:58:27;4.40;99.90
10678;DHT22;5387;48.722;9.110;2023-01-16T11:00:59;4.40;99.90
10678;DHT22;5387;48.722;9.110;2023-01-16T11:03:32;4.30;99.90
10678;DHT22;5387;48.722;9.110;2023-01-16T11:06:08;4.40;99.90
10678;DHT22;5387;48.722;9.110;2023-01-16T11:08:36;4.50;99.90
10678;DHT22;5387;48.722;9.110;2023-01-16T11:11:03;4.60;99.90
10678;DHT22;5387;48.722;9.110;2023-01-16T11:13:32;4.70;99.90
10678;DHT22;5387;48.722;9.110;2023-01-16T11:16:22;4.70;99.90
10678;DHT22;5387;48.722;9.110;2023-01-16T11:19:18;4.80;99.90
10678;DHT22;5387;48.722;9.110;2023-01-16T11:21:49;4.80;99.90
10678;DHT22;5387;48.722;9.110;2023-01-16T11:24:20;4.90;99.90
10678;DHT22;5387;48.722;9.110;2023-01-16T11:26:50;5.00;99.90
10678;DHT22;5387;48.722;9.110;2023-01-16T11:29:19;4.90;99.90
10678;DHT22;5387;48.722;9.110;2023-01-16T11:31:52;5.00;99.90
10678;DHT22;5387;48.722;9.110;2023-01-16T11:34:21;5.00;99.90
10678;DHT22;5387;48.722;9.110;2023-01-16T11:36:52;5.00;99.90
10678;DHT22;5387;48.722;9.110;2023-01-16T11:39:21;5.00;99.90
10678;DHT22;5387;48.722;9.110;2023-01-16T11:41:51;5.00;99.90
10678;DHT22;5387;48.722;9.110;2023-01-16T11:44:21;4.90;99.90
10678;DHT22;5387;48.722;9.110;2023-01-16T11:47:10;4.90;99.90
10678;DHT22;5387;48.722;9.110;2023-01-16T11:49:39;5.00;99.90
10678;DHT22;5387;48.722;9.110;2023-01-16T11:52:13;4.90;99.90
10678;DHT22;5387;48.722;9.110;2023-01-16T11:54:52;5.00;99.90
10678;DHT22;5387;48.722;9.110;2023-01-16T11:57:41;5.00;99.90
10678;DHT22;5387;48.722;9.110;2023-01-16T12:00:28;5.00;99.90
10678;DHT22;5387;48.722;9.110;2023-01-16T12:03:18;5.00;99.90
10678;DHT22;5387;48.722;9.110;2023-01-16T12:08:36;5.00;99.90
10678;DHT22;5387;48.722;9.110;2023-01-16T12:11:07;5.00;99.90
10678;DHT22;5387;48.722;9.110;2023-01-16T12:13:40;5.10;99.90
10678;DHT22;5387;48.722;9.110;2023-01-16T12:16:55;5.20;99.90
10678;DHT22;5387;48.722;9.110;2023-01-16T12:19:47;5.20;99.90
10678;DHT22;5387;48.722;9.110;2023-01-16T12:22:22;5.20;99.90
10678;DHT22;5387;48.722;9.110;2023-01-16T12:24:57;5.20;99.90
10678;DHT22;5387;48.722;9.110;2023-01-16T12:27:36;5.30;99.90
10678;DHT22;5387;48.722;9.110;2023-01-16T12:30:18;5.30;99.90
10678;DHT22;5387;48.722;9.110;2023-01-16T12:32:56;5.20;99.90
10678;DHT22;5387;48.722;9.110;2023-01-16T12:35:42;5.20;99.90
10678;DHT22;5387;48.722;9.110;2023-01-16T12:38:15;5.30;99.90
10678;DHT22;5387;48.722;9.110;2023-01-16T12:41:07;5.40;99.90
10678;DHT22;5387;48.722;9.110;2023-01-16T12:44:07;5.40;99.90
10678;DHT22;5387;48.722;9.110;2023-01-16T12:46:44;5.50;99.90
10678;DHT22;5387;48.722;9.110;2023-01-16T12:49:25;5.50;99.90
10678;DHT22;5387;48.722;9.110;2023-01-16T12:52:06;5.50;99.90
10678;DHT22;5387;48.722;9.110;2023-01-16T12:54:52;5.60;99.90
10678;DHT22;5387;48.722;9.110;2023-01-16T12:57:33;5.50;99.90
10678;DHT22;5387;48.722;9.110;2023-01-16T13:00:09;5.70;99.90
10678;DHT22;5387;48.722;9.110;2023-01-16T13:02:41;5.70;99.90
10678;DHT22;5387;48.722;9.110;2023-01-16T13:05:12;5.70;99.90
10678;DHT22;5387;48.722;9.110;2023-01-16T13:07:50;5.70;99.90
10678;DHT22;5387;48.722;9.110;2023-01-16T13:10:21;5.70;99.90
10678;DHT22;5387;48.722;9.110;2023-01-16T13:13:14;5.80;99.90
10678;DHT22;5387;48.722;9.110;2023-01-16T13:15:56;5.80;99.90
10678;DHT22;5387;48.722;9.110;2023-01-16T13:18:26;5.80;99.90
10678;DHT22;5387;48.722;9.110;2023-01-16T13:20:56;5.80;99.90
10678;DHT22;5387;48.722;9.110;2023-01-16T13:23:29;5.80;99.90
10678;DHT22;5387;48.722;9.110;2023-01-16T13:25:59;6.10;99.90
10678;DHT22;5387;48.722;9.110;2023-01-16T13:28:35;6.30;99.90
10678;DHT22;5387;48.722;9.110;2023-01-16T13:31:07;6.40;99.90
10678;DHT22;5387;48.722;9.110;2023-01-16T13:33:42;6.40;99.90
10678;DHT22;5387;48.722;9.110;2023-01-16T13:36:24;6.60;99.90
10678;DHT22;5387;48.722;9.110;2023-01-16T13:39:08;6.60;99.90
10678;DHT22;5387;48.722;9.110;2023-01-16T13:41:43;6.60;99.90
10678;DHT22;5387;48.722;9.110;2023-01-16T13:44:16;6.60;99.90
10678;DHT22;5387;48.722;9.110;2023-01-16T13:47:03;6.50;99.90
10678;DHT22;5387;48.722;9.110;2023-01-16T13:49:30;6.50;99.90
10678;DHT22;5387;48.722;9.110;2023-01-16T13:52:00;6.40;99.90
10678;DHT22;5387;48.722;9.110;2023-01-16T13:54:35;6.30;99.90
10678;DHT22;5387;48.722;9.110;2023-01-16T13:57:08;6.30;99.90
10678;DHT22;5387;48.722;9.110;2023-01-16T13:59:44;6.40;99.90
10678;DHT22;5387;48.722;9.110;2023-01-16T14:02:25;6.30;99.90
10678;DHT22;5387;48.722;9.110;2023-01-16T14:05:22;6.20;99.90
10678;DHT22;5387;48.722;9.110;2023-01-16T14:08:04;6.20;99.90
10678;DHT22;5387;48.722;9.110;2023-01-16T14:11:03;6.10;99.90
10678;DHT22;5387;48.722;9.110;2023-01-16T14:13:34;6.10;99.90
10678;DHT22;5387;48.722;9.110;2023-01-16T14:16:30;6.00;99.90
10678;DHT22;5387;48.722;9.110;2023-01-16T14:19:00;5.80;99.90
10678;DHT22;5387;48.722;9.110;2023-01-16T14:21:38;5.70;99.90
10678;DHT22;5387;48.722;9.110;2023-01-16T14:24:10;5.60;99.90
10678;DHT22;5387;48.722;9.110;2023-01-16T14:26:44;5.50;99.90
10678;DHT22;5387;48.722;9.110;2023-01-16T14:29:18;5.40;99.90
10678;DHT22;5387;48.722;9.110;2023-01-16T14:31:52;5.30;99.90
10678;DHT22;5387;48.722;9.110;2023-01-16T14:34:22;5.30;99.90
10678;DHT22;5387;48.722;9.110;2023-01-16T14:36:54;5.30;99.90
10678;DHT22;5387;48.722;9.110;2023-01-16T14:39:29;5.20;99.90
10678;DHT22;5387;48.722;9.110;2023-01-16T14:42:03;5.20;99.90
10678;DHT22;5387;48.722;9.110;2023-01-16T14:45:04;5.20;99.90
10678;DHT22;5387;48.722;9.110;2023-01-16T14:48:10;5.10;99.90
10678;DHT22;5387;48.722;9.110;2023-01-16T14:50:59;5.10;99.90
10678;DHT22;5387;48.722;9.110;2023-01-16T14:53:46;5.10;99.90
10678;DHT22;5387;48.722;9.110;2023-01-16T14:56:33;5.20;99.90
10678;DHT22;5387;48.722;9.110;2023-01-16T14:59:04;5.00;99.90
10678;DHT22;5387;48.722;9.110;2023-01-16T15:01:34;4.90;99.90
10678;DHT22;5387;48.722;9.110;2023-01-16T15:04:22;5.00;99.90
10678;DHT22;5387;48.722;9.110;2023-01-16T15:06:55;5.00;99.90
10678;DHT22;5387;48.722;9.110;2023-01-16T15:09:30;4.90;99.90
10678;DHT22;5387;48.722;9.110;2023-01-16T15:11:59;4.90;99.90
10678;DHT22;5387;48.722;9.110;2023-01-16T15:14:27;4.90;99.90
10678;DHT22;5387;48.722;9.110;2023-01-16T15:17:11;4.90;99.90
10678;DHT22;5387;48.722;9.110;2023-01-16T15:19:59;4.80;99.90
10678;DHT22;5387;48.722;9.110;2023-01-16T15:22:47;5.00;99.90
10678;DHT22;5387;48.722;9.110;2023-01-16T15:25:28;5.00;99.90
10678;DHT22;5387;48.722;9.110;2023-01-16T15:28:03;5.10;99.90
10678;DHT22;5387;48.722;9.110;2023-01-16T15:30:36;5.20;99.90
10678;DHT22;5387;48.722;9.110;2023-01-16T15:33:04;5.20;99.90
10678;DHT22;5387;48.722;9.110;2023-01-16T15:36:18;5.10;99.90
10678;DHT22;5387;48.722;9.110;2023-01-16T15:38:46;5.00;99.90
10678;DHT22;5387;48.722;9.110;2023-01-16T15:41:16;5.00;99.90
10678;DHT22;5387;48.722;9.110;2023-01-16T15:43:43;4.90;99.90
10678;DHT22;5387;48.722;9.110;2023-01-16T15:46:59;4.70;99.90
10678;DHT22;5387;48.722;9.110;2023-01-16T15:49:33;4.50;99.90
10678;DHT22;5387;48.722;9.110;2023-01-16T15:52:03;4.50;99.90
10678;DHT22;5387;48.722;9.110;2023-01-16T15:54:30;4.30;99.90
10678;DHT22;5387;48.722;9.110;2023-01-16T15:56:57;4.20;99.90
10678;DHT22;5387;48.722;9.110;2023-01-16T15:59:26;4.20;99.90
10678;DHT22;5387;48.722;9.110;2023-01-16T16:02:08;4.30;99.90
10678;DHT22;5387;48.722;9.110;2023-01-16T16:04:41;4.10;99.90
10678;DHT22;5387;48.722;9.110;2023-01-16T16:07:08;4.10;99.90
10678;DHT22;5387;48.722;9.110;2023-01-16T16:09:35;4.10;99.90
10678;DHT22;5387;48.722;9.110;2023-01-16T16:12:03;4.40;99.90
10678;DHT22;5387;48.722;9.110;2023-01-16T16:14:31;4.30;99.90
10678;DHT22;5387;48.722;9.110;2023-01-16T16:17:28;4.00;99.90
10678;DHT22;5387;48.722;9.110;2023-01-16T16:20:26;3.90;99.90
10678;DHT22;5387;48.722;9.110;2023-01-16T16:22:56;3.80;99.90
10678;DHT22;5387;48.722;9.110;2023-01-16T16:25:28;3.80;99.90
10678;DHT22;5387;48.722;9.110;2023-01-16T16:27:57;3.70;99.90
10678;DHT22;5387;48.722;9.110;2023-01-16T16:30:25;3.70;99.90
10678;DHT22;5387;48.722;9.110;2023-01-16T16:32:54;3.70;99.90
10678;DHT22;5387;48.722;9.110;2023-01-16T16:35:26;3.60;99.90
10678;DHT22;5387;48.722;9.110;2023-01-16T16:37:54;3.60;99.90
10678;DHT22;5387;48.722;9.110;2023-01-16T16:40:21;3.60;99.90
10678;DHT22;5387;48.722;9.110;2023-01-16T16:42:55;3.50;99.90
10678;DHT22;5387;48.722;9.110;2023-01-16T16:45:28;3.40;99.90
10678;DHT22;5387;48.722;9.110;2023-01-16T16:51:21;3.40;99.90